sensor_id;sensor_type;location;lat;lon;timestamp;P1;durP1;ratioP1;P2;durP2;ratioP2
4096;SDS011;2062;50.694;7.246;2022-07-23T00:01:44;9.70;;;6.20;;
4096;SDS011;2062;50.694;7.246;2022-07-23T00:04:12;10.98;;;6.80;;
4096;SDS011;2062;50.694;7.246;2022-07-23T00:06:39;10.32;;;6.60;;
4096;SDS011;2062;50.694;7.246;2022-07-23T00:09:06;9.55;;;6.40;;
4096;SDS011;2062;50.694;7.246;2022-07-23T00:11:33;9.70;;;6.72;;
4096;SDS011;2062;50.694;7.246;2022-07-23T00:13:59;11.43;;;6.97;;
4096;SDS011;2062;50.694;7.246;2022-07-23T00:16:28;11.80;;;7.00;;
4096;SDS011;2062;50.694;7.246;2022-07-23T00:18:54;10.98;;;6.40;;
4096;SDS011;2062;50.694;7.246;2022-07-23T00:21:21;10.23;;;6.38;;
4096;SDS011;2062;50.694;7.246;2022-07-23T00:23:48;12.93;;;6.50;;
4096;SDS011;2062;50.694;7.246;2022-07-23T00:26:15;10.27;;;6.73;;
4096;SDS011;2062;50.694;7.246;2022-07-23T00:28:42;10.85;;;7.00;;
4096;SDS011;2062;50.694;7.246;2022-07-23T00:31:08;10.90;;;7.00;;
4096;SDS011;2062;50.694;7.246;2022-07-23T00:33:37;9.77;;;6.57;;
4096;SDS011;2062;50.694;7.246;2022-07-23T00:36:04;11.02;;;7.13;;
4096;SDS011;2062;50.694;7.246;2022-07-23T00:38:31;11.73;;;6.83;;
4096;SDS011;2062;50.694;7.246;2022-07-23T00:40:58;11.18;;;7.13;;
4096;SDS011;2062;50.694;7.246;2022-07-23T00:43:25;11.50;;;7.18;;
4096;SDS011;2062;50.694;7.246;2022-07-23T00:45:52;12.77;;;7.25;;
4096;SDS011;2062;50.694;7.246;2022-07-23T00:48:19;11.27;;;7.05;;
4096;SDS011;2062;50.694;7.246;2022-07-23T00:50:47;9.83;;;6.77;;
4096;SDS011;2062;50.694;7.246;2022-07-23T00:53:14;10.65;;;6.70;;
4096;SDS011;2062;50.694;7.246;2022-07-23T00:55:41;9.80;;;6.45;;
4096;SDS011;2062;50.694;7.246;2022-07-23T00:58:08;10.10;;;6.85;;
4096;SDS011;2062;50.694;7.246;2022-07-23T01:00:35;9.95;;;6.70;;
4096;SDS011;2062;50.694;7.246;2022-07-23T01:03:02;10.43;;;7.17;;
4096;SDS011;2062;50.694;7.246;2022-07-23T01:05:29;10.13;;;6.60;;
4096;SDS011;2062;50.694;7.246;2022-07-23T01:07:57;11.80;;;6.95;;
4096;SDS011;2062;50.694;7.246;2022-07-23T01:10:24;10.75;;;6.60;;
4096;SDS011;2062;50.694;7.246;2022-07-23T01:12:58;11.25;;;6.72;;
4096;SDS011;2062;50.694;7.246;2022-07-23T01:15:25;9.87;;;7.07;;
4096;SDS011;2062;50.694;7.246;2022-07-23T01:17:52;11.07;;;6.90;;
4096;SDS011;2062;50.694;7.246;2022-07-23T01:20:19;11.07;;;7.10;;
4096;SDS011;2062;50.694;7.246;2022-07-23T01:22:48;10.75;;;6.70;;
4096;SDS011;2062;50.694;7.246;2022-07-23T01:25:15;10.18;;;6.45;;
4096;SDS011;2062;50.694;7.246;2022-07-23T01:27:42;10.53;;;6.70;;
4096;SDS011;2062;50.694;7.246;2022-07-23T01:30:10;9.98;;;6.47;;
4096;SDS011;2062;50.694;7.246;2022-07-23T01:32:37;11.63;;;7.35;;
4096;SDS011;2062;50.694;7.246;2022-07-23T01:35:05;11.35;;;6.93;;
4096;SDS011;2062;50.694;7.246;2022-07-23T01:37:33;10.35;;;7.03;;
4096;SDS011;2062;50.694;7.246;2022-07-23T01:40:01;10.63;;;7.00;;
4096;SDS011;2062;50.694;7.246;2022-07-23T01:42:29;11.65;;;6.95;;
4096;SDS011;2062;50.694;7.246;2022-07-23T01:44:56;11.05;;;7.05;;
4096;SDS011;2062;50.694;7.246;2022-07-23T01:47:23;11.32;;;7.43;;
4096;SDS011;2062;50.694;7.246;2022-07-23T01:49:49;10.93;;;7.40;;
4096;SDS011;2062;50.694;7.246;2022-07-23T01:52:16;10.73;;;6.73;;
4096;SDS011;2062;50.694;7.246;2022-07-23T01:54:43;11.35;;;6.95;;
4096;SDS011;2062;50.694;7.246;2022-07-23T01:57:11;10.88;;;7.18;;
4096;SDS011;2062;50.694;7.246;2022-07-23T01:59:38;10.27;;;6.95;;
4096;SDS011;2062;50.694;7.246;2022-07-23T02:02:05;9.82;;;6.72;;
4096;SDS011;2062;50.694;7.246;2022-07-23T02:04:32;10.43;;;6.90;;
4096;SDS011;2062;50.694;7.246;2022-07-23T02:07:01;10.73;;;6.93;;
4096;SDS011;2062;50.694;7.246;2022-07-23T02:09:28;11.07;;;7.57;;
4096;SDS011;2062;50.694;7.246;2022-07-23T02:11:55;11.68;;;7.20;;
4096;SDS011;2062;50.694;7.246;2022-07-23T02:14:24;10.20;;;6.90;;
4096;SDS011;2062;50.694;7.246;2022-07-23T02:16:50;10.77;;;7.23;;
4096;SDS011;2062;50.694;7.246;2022-07-23T02:19:17;11.32;;;7.22;;
4096;SDS011;2062;50.694;7.246;2022-07-23T02:21:44;11.02;;;7.30;;
4096;SDS011;2062;50.694;7.246;2022-07-23T02:24:11;11.45;;;7.10;;
4096;SDS011;2062;50.694;7.246;2022-07-23T02:26:38;10.55;;;7.30;;
4096;SDS011;2062;50.694;7.246;2022-07-23T02:29:05;9.97;;;6.70;;
4096;SDS011;2062;50.694;7.246;2022-07-23T02:31:33;11.35;;;7.47;;
4096;SDS011;2062;50.694;7.246;2022-07-23T02:34:00;11.52;;;6.63;;
4096;SDS011;2062;50.694;7.246;2022-07-23T02:36:27;11.35;;;7.10;;
4096;SDS011;2062;50.694;7.246;2022-07-23T02:38:54;10.50;;;7.20;;
4096;SDS011;2062;50.694;7.246;2022-07-23T02:41:22;11.30;;;6.93;;
4096;SDS011;2062;50.694;7.246;2022-07-23T02:43:49;10.73;;;7.40;;
4096;SDS011;2062;50.694;7.246;2022-07-23T02:46:15;10.93;;;7.28;;
4096;SDS011;2062;50.694;7.246;2022-07-23T02:48:44;10.35;;;7.05;;
4096;SDS011;2062;50.694;7.246;2022-07-23T02:51:11;10.55;;;7.55;;
4096;SDS011;2062;50.694;7.246;2022-07-23T02:53:37;10.40;;;6.97;;
4096;SDS011;2062;50.694;7.246;2022-07-23T02:56:04;11.80;;;7.97;;
4096;SDS011;2062;50.694;7.246;2022-07-23T02:58:31;11.55;;;7.95;;
4096;SDS011;2062;50.694;7.246;2022-07-23T03:00:58;10.93;;;7.07;;
4096;SDS011;2062;50.694;7.246;2022-07-23T03:15:25;12.10;;;8.00;;
4096;SDS011;2062;50.694;7.246;2022-07-23T03:17:51;10.70;;;7.80;;
4096;SDS011;2062;50.694;7.246;2022-07-23T03:20:18;11.47;;;7.87;;
4096;SDS011;2062;50.694;7.246;2022-07-23T03:22:45;12.93;;;7.82;;
4096;SDS011;2062;50.694;7.246;2022-07-23T03:25:12;11.02;;;7.43;;
4096;SDS011;2062;50.694;7.246;2022-07-23T03:27:39;11.70;;;7.68;;
4096;SDS011;2062;50.694;7.246;2022-07-23T03:30:06;12.27;;;7.80;;
4096;SDS011;2062;50.694;7.246;2022-07-23T03:32:35;11.23;;;7.40;;
4096;SDS011;2062;50.694;7.246;2022-07-23T03:35:02;11.60;;;7.82;;
4096;SDS011;2062;50.694;7.246;2022-07-23T03:37:29;13.20;;;8.10;;
4096;SDS011;2062;50.694;7.246;2022-07-23T03:39:56;15.27;;;7.60;;
4096;SDS011;2062;50.694;7.246;2022-07-23T03:42:22;11.80;;;8.10;;
4096;SDS011;2062;50.694;7.246;2022-07-23T03:44:49;11.20;;;7.70;;
4096;SDS011;2062;50.694;7.246;2022-07-23T03:47:16;11.48;;;7.63;;
4096;SDS011;2062;50.694;7.246;2022-07-23T03:49:48;12.93;;;7.90;;
4096;SDS011;2062;50.694;7.246;2022-07-23T03:52:15;12.48;;;7.22;;
4096;SDS011;2062;50.694;7.246;2022-07-23T03:54:41;12.38;;;8.32;;
4096;SDS011;2062;50.694;7.246;2022-07-23T03:57:08;11.70;;;8.37;;
4096;SDS011;2062;50.694;7.246;2022-07-23T03:59:35;11.00;;;7.78;;
4096;SDS011;2062;50.694;7.246;2022-07-23T04:02:02;11.82;;;7.57;;
4096;SDS011;2062;50.694;7.246;2022-07-23T04:04:29;13.00;;;8.02;;
4096;SDS011;2062;50.694;7.246;2022-07-23T04:06:57;11.90;;;7.40;;
4096;SDS011;2062;50.694;7.246;2022-07-23T04:09:24;11.97;;;7.93;;
4096;SDS011;2062;50.694;7.246;2022-07-23T04:11:51;11.48;;;7.88;;
4096;SDS011;2062;50.694;7.246;2022-07-23T04:14:17;12.48;;;8.30;;
4096;SDS011;2062;50.694;7.246;2022-07-23T04:16:44;10.98;;;7.55;;
4096;SDS011;2062;50.694;7.246;2022-07-23T04:19:11;12.23;;;8.13;;
4096;SDS011;2062;50.694;7.246;2022-07-23T04:21:38;12.37;;;8.33;;
4096;SDS011;2062;50.694;7.246;2022-07-23T04:24:06;14.15;;;8.23;;
4096;SDS011;2062;50.694;7.246;2022-07-23T04:26:33;12.30;;;8.20;;
4096;SDS011;2062;50.694;7.246;2022-07-23T04:29:00;11.50;;;7.80;;
4096;SDS011;2062;50.694;7.246;2022-07-23T04:31:27;13.70;;;8.40;;
4096;SDS011;2062;50.694;7.246;2022-07-23T04:33:54;11.60;;;7.87;;
4096;SDS011;2062;50.694;7.246;2022-07-23T04:36:20;12.65;;;8.60;;
4096;SDS011;2062;50.694;7.246;2022-07-23T04:38:47;11.68;;;8.10;;
4096;SDS011;2062;50.694;7.246;2022-07-23T04:41:16;12.40;;;8.23;;
4096;SDS011;2062;50.694;7.246;2022-07-23T04:43:42;11.52;;;8.10;;
4096;SDS011;2062;50.694;7.246;2022-07-23T04:46:09;12.00;;;7.70;;
4096;SDS011;2062;50.694;7.246;2022-07-23T04:48:36;10.80;;;7.63;;
4096;SDS011;2062;50.694;7.246;2022-07-23T04:51:03;11.48;;;7.68;;
4096;SDS011;2062;50.694;7.246;2022-07-23T04:53:30;12.23;;;7.63;;
4096;SDS011;2062;50.694;7.246;2022-07-23T04:55:57;11.80;;;7.90;;
4096;SDS011;2062;50.694;7.246;2022-07-23T04:58:25;11.80;;;7.43;;
4096;SDS011;2062;50.694;7.246;2022-07-23T05:00:52;11.65;;;7.70;;
4096;SDS011;2062;50.694;7.246;2022-07-23T05:03:19;13.52;;;8.18;;
4096;SDS011;2062;50.694;7.246;2022-07-23T05:05:46;11.75;;;7.70;;
4096;SDS011;2062;50.694;7.246;2022-07-23T05:08:13;12.07;;;8.25;;
4096;SDS011;2062;50.694;7.246;2022-07-23T05:10:40;11.43;;;7.80;;
4096;SDS011;2062;50.694;7.246;2022-07-23T05:13:07;12.20;;;8.35;;
4096;SDS011;2062;50.694;7.246;2022-07-23T05:15:35;11.98;;;8.02;;
4096;SDS011;2062;50.694;7.246;2022-07-23T05:18:02;12.77;;;8.82;;
4096;SDS011;2062;50.694;7.246;2022-07-23T05:20:29;11.45;;;8.52;;
4096;SDS011;2062;50.694;7.246;2022-07-23T05:22:56;11.70;;;7.70;;
4096;SDS011;2062;50.694;7.246;2022-07-23T05:25:23;11.60;;;7.53;;
4096;SDS011;2062;50.694;7.246;2022-07-23T05:27:50;12.93;;;7.75;;
4096;SDS011;2062;50.694;7.246;2022-07-23T05:30:17;11.85;;;7.43;;
4096;SDS011;2062;50.694;7.246;2022-07-23T05:32:48;12.38;;;7.40;;
4096;SDS011;2062;50.694;7.246;2022-07-23T05:35:15;15.20;;;7.57;;
4096;SDS011;2062;50.694;7.246;2022-07-23T05:37:42;11.70;;;7.13;;
4096;SDS011;2062;50.694;7.246;2022-07-23T05:40:09;13.18;;;7.32;;
4096;SDS011;2062;50.694;7.246;2022-07-23T05:42:37;11.60;;;7.03;;
4096;SDS011;2062;50.694;7.246;2022-07-23T05:45:05;11.88;;;7.13;;
4096;SDS011;2062;50.694;7.246;2022-07-23T05:47:39;12.93;;;7.17;;
4096;SDS011;2062;50.694;7.246;2022-07-23T05:50:11;12.25;;;7.35;;
4096;SDS011;2062;50.694;7.246;2022-07-23T05:52:38;11.82;;;6.93;;
4096;SDS011;2062;50.694;7.246;2022-07-23T05:55:06;10.38;;;7.57;;
4096;SDS011;2062;50.694;7.246;2022-07-23T05:57:34;11.70;;;7.75;;
4096;SDS011;2062;50.694;7.246;2022-07-23T06:00:02;11.97;;;7.80;;
4096;SDS011;2062;50.694;7.246;2022-07-23T06:02:29;11.70;;;7.35;;
4096;SDS011;2062;50.694;7.246;2022-07-23T06:04:56;11.35;;;7.75;;
4096;SDS011;2062;50.694;7.246;2022-07-23T06:07:24;11.07;;;7.50;;
4096;SDS011;2062;50.694;7.246;2022-07-23T06:09:51;13.75;;;7.90;;
4096;SDS011;2062;50.694;7.246;2022-07-23T06:12:18;12.60;;;8.03;;
4096;SDS011;2062;50.694;7.246;2022-07-23T06:14:45;13.77;;;7.82;;
4096;SDS011;2062;50.694;7.246;2022-07-23T06:17:13;12.02;;;7.47;;
4096;SDS011;2062;50.694;7.246;2022-07-23T06:19:40;12.65;;;7.03;;
4096;SDS011;2062;50.694;7.246;2022-07-23T06:22:07;11.82;;;7.82;;
4096;SDS011;2062;50.694;7.246;2022-07-23T06:24:35;11.27;;;7.90;;
4096;SDS011;2062;50.694;7.246;2022-07-23T06:27:02;12.13;;;7.25;;
4096;SDS011;2062;50.694;7.246;2022-07-23T06:29:29;15.02;;;7.22;;
4096;SDS011;2062;50.694;7.246;2022-07-23T06:31:56;11.18;;;7.38;;
4096;SDS011;2062;50.694;7.246;2022-07-23T06:34:23;11.85;;;7.30;;
4096;SDS011;2062;50.694;7.246;2022-07-23T06:36:50;10.37;;;6.77;;
4096;SDS011;2062;50.694;7.246;2022-07-23T06:39:17;12.10;;;7.28;;
4096;SDS011;2062;50.694;7.246;2022-07-23T06:41:45;11.57;;;7.30;;
4096;SDS011;2062;50.694;7.246;2022-07-23T06:44:12;9.95;;;6.78;;
4096;SDS011;2062;50.694;7.246;2022-07-23T06:46:38;13.38;;;7.05;;
4096;SDS011;2062;50.694;7.246;2022-07-23T06:49:05;10.40;;;6.97;;
4096;SDS011;2062;50.694;7.246;2022-07-23T06:51:33;11.70;;;6.82;;
4096;SDS011;2062;50.694;7.246;2022-07-23T06:54:00;10.75;;;6.40;;
4096;SDS011;2062;50.694;7.246;2022-07-23T06:56:27;11.27;;;6.47;;
4096;SDS011;2062;50.694;7.246;2022-07-23T06:58:55;10.70;;;6.65;;
4096;SDS011;2062;50.694;7.246;2022-07-23T07:01:22;11.27;;;6.47;;
4096;SDS011;2062;50.694;7.246;2022-07-23T07:03:49;14.13;;;7.10;;
4096;SDS011;2062;50.694;7.246;2022-07-23T07:06:16;12.65;;;6.97;;
4096;SDS011;2062;50.694;7.246;2022-07-23T07:08:43;13.70;;;7.05;;
4096;SDS011;2062;50.694;7.246;2022-07-23T07:11:10;12.48;;;7.63;;
4096;SDS011;2062;50.694;7.246;2022-07-23T07:13:37;14.60;;;7.73;;
4096;SDS011;2062;50.694;7.246;2022-07-23T07:16:05;14.13;;;8.65;;
4096;SDS011;2062;50.694;7.246;2022-07-23T07:18:33;13.90;;;7.97;;
4096;SDS011;2062;50.694;7.246;2022-07-23T07:20:59;14.02;;;7.97;;
4096;SDS011;2062;50.694;7.246;2022-07-23T07:23:26;15.63;;;8.27;;
4096;SDS011;2062;50.694;7.246;2022-07-23T07:25:53;15.03;;;7.77;;
4096;SDS011;2062;50.694;7.246;2022-07-23T07:28:20;13.40;;;7.30;;
4096;SDS011;2062;50.694;7.246;2022-07-23T07:30:47;13.15;;;7.40;;
4096;SDS011;2062;50.694;7.246;2022-07-23T07:33:15;14.35;;;7.57;;
4096;SDS011;2062;50.694;7.246;2022-07-23T07:35:42;15.15;;;7.60;;
4096;SDS011;2062;50.694;7.246;2022-07-23T07:38:08;13.53;;;6.83;;
4096;SDS011;2062;50.694;7.246;2022-07-23T07:40:35;10.70;;;6.50;;
4096;SDS011;2062;50.694;7.246;2022-07-23T07:43:02;10.55;;;5.80;;
4096;SDS011;2062;50.694;7.246;2022-07-23T07:45:29;10.98;;;6.00;;
4096;SDS011;2062;50.694;7.246;2022-07-23T07:47:56;13.60;;;6.18;;
4096;SDS011;2062;50.694;7.246;2022-07-23T07:50:24;11.00;;;6.20;;
4096;SDS011;2062;50.694;7.246;2022-07-23T07:52:51;12.45;;;6.60;;
4096;SDS011;2062;50.694;7.246;2022-07-23T07:55:18;10.82;;;5.93;;
4096;SDS011;2062;50.694;7.246;2022-07-23T07:57:45;10.95;;;5.82;;
4096;SDS011;2062;50.694;7.246;2022-07-23T08:00:12;11.18;;;6.15;;
4096;SDS011;2062;50.694;7.246;2022-07-23T08:02:40;11.07;;;5.80;;
4096;SDS011;2062;50.694;7.246;2022-07-23T08:05:09;9.98;;;5.28;;
4096;SDS011;2062;50.694;7.246;2022-07-23T08:07:37;12.55;;;5.35;;
4096;SDS011;2062;50.694;7.246;2022-07-23T08:10:05;10.50;;;5.80;;
4096;SDS011;2062;50.694;7.246;2022-07-23T08:12:38;10.40;;;5.30;;
4096;SDS011;2062;50.694;7.246;2022-07-23T08:15:10;10.50;;;5.13;;
4096;SDS011;2062;50.694;7.246;2022-07-23T08:17:37;10.23;;;5.05;;
4096;SDS011;2062;50.694;7.246;2022-07-23T08:20:05;9.30;;;5.53;;
4096;SDS011;2062;50.694;7.246;2022-07-23T08:22:48;11.23;;;4.90;;
4096;SDS011;2062;50.694;7.246;2022-07-23T08:25:17;11.70;;;5.47;;
4096;SDS011;2062;50.694;7.246;2022-07-23T08:27:47;9.63;;;5.17;;
4096;SDS011;2062;50.694;7.246;2022-07-23T08:30:14;11.98;;;5.40;;
4096;SDS011;2062;50.694;7.246;2022-07-23T08:32:48;11.32;;;5.00;;
4096;SDS011;2062;50.694;7.246;2022-07-23T08:35:24;10.75;;;4.97;;
4096;SDS011;2062;50.694;7.246;2022-07-23T08:37:53;9.00;;;4.90;;
4096;SDS011;2062;50.694;7.246;2022-07-23T08:40:20;8.90;;;4.97;;
4096;SDS011;2062;50.694;7.246;2022-07-23T08:42:48;11.23;;;5.15;;
4096;SDS011;2062;50.694;7.246;2022-07-23T08:45:18;9.40;;;4.60;;
4096;SDS011;2062;50.694;7.246;2022-07-23T08:47:48;8.05;;;4.45;;
4096;SDS011;2062;50.694;7.246;2022-07-23T08:50:16;11.55;;;5.25;;
4096;SDS011;2062;50.694;7.246;2022-07-23T08:52:43;8.60;;;4.50;;
4096;SDS011;2062;50.694;7.246;2022-07-23T08:55:12;10.10;;;4.90;;
4096;SDS011;2062;50.694;7.246;2022-07-23T08:57:39;9.65;;;4.90;;
4096;SDS011;2062;50.694;7.246;2022-07-23T09:00:06;12.60;;;5.68;;
4096;SDS011;2062;50.694;7.246;2022-07-23T09:02:40;17.08;;;5.28;;
4096;SDS011;2062;50.694;7.246;2022-07-23T09:05:08;8.40;;;4.90;;
4096;SDS011;2062;50.694;7.246;2022-07-23T09:07:36;8.15;;;4.95;;
4096;SDS011;2062;50.694;7.246;2022-07-23T09:10:05;9.35;;;4.93;;
4096;SDS011;2062;50.694;7.246;2022-07-23T09:12:35;9.20;;;4.82;;
4096;SDS011;2062;50.694;7.246;2022-07-23T09:15:03;10.18;;;5.10;;
4096;SDS011;2062;50.694;7.246;2022-07-23T09:17:36;11.17;;;4.70;;
4096;SDS011;2062;50.694;7.246;2022-07-23T09:20:08;9.05;;;4.80;;
4096;SDS011;2062;50.694;7.246;2022-07-23T09:22:37;9.18;;;5.13;;
4096;SDS011;2062;50.694;7.246;2022-07-23T09:25:08;9.32;;;5.30;;
4096;SDS011;2062;50.694;7.246;2022-07-23T09:27:48;9.85;;;5.15;;
4096;SDS011;2062;50.694;7.246;2022-07-23T09:30:19;8.83;;;4.87;;
4096;SDS011;2062;50.694;7.246;2022-07-23T09:35:45;8.68;;;4.85;;
4096;SDS011;2062;50.694;7.246;2022-07-23T09:38:13;9.32;;;4.63;;
4096;SDS011;2062;50.694;7.246;2022-07-23T09:40:40;9.15;;;4.65;;
4096;SDS011;2062;50.694;7.246;2022-07-23T09:43:09;9.30;;;4.63;;
4096;SDS011;2062;50.694;7.246;2022-07-23T09:45:37;9.70;;;4.80;;
4096;SDS011;2062;50.694;7.246;2022-07-23T09:48:11;10.48;;;4.93;;
4096;SDS011;2062;50.694;7.246;2022-07-23T09:50:39;10.13;;;4.70;;
4096;SDS011;2062;50.694;7.246;2022-07-23T09:53:07;9.52;;;4.80;;
4096;SDS011;2062;50.694;7.246;2022-07-23T09:55:35;10.00;;;4.30;;
4096;SDS011;2062;50.694;7.246;2022-07-23T09:58:04;9.50;;;4.80;;
4096;SDS011;2062;50.694;7.246;2022-07-23T10:00:35;8.75;;;4.85;;
4096;SDS011;2062;50.694;7.246;2022-07-23T10:03:03;9.02;;;4.68;;
4096;SDS011;2062;50.694;7.246;2022-07-23T10:05:33;10.57;;;5.10;;
4096;SDS011;2062;50.694;7.246;2022-07-23T10:08:01;9.87;;;4.80;;
4096;SDS011;2062;50.694;7.246;2022-07-23T10:10:29;8.15;;;4.60;;
4096;SDS011;2062;50.694;7.246;2022-07-23T10:12:58;9.43;;;4.50;;
4096;SDS011;2062;50.694;7.246;2022-07-23T10:15:59;9.27;;;4.70;;
4096;SDS011;2062;50.694;7.246;2022-07-23T10:18:26;8.10;;;4.88;;
4096;SDS011;2062;50.694;7.246;2022-07-23T10:20:53;10.47;;;5.10;;
4096;SDS011;2062;50.694;7.246;2022-07-23T10:23:22;9.10;;;5.07;;
4096;SDS011;2062;50.694;7.246;2022-07-23T10:25:57;10.57;;;5.30;;
4096;SDS011;2062;50.694;7.246;2022-07-23T10:28:40;10.80;;;4.90;;
4096;SDS011;2062;50.694;7.246;2022-07-23T10:31:20;12.10;;;5.30;;
4096;SDS011;2062;50.694;7.246;2022-07-23T10:34:01;11.33;;;5.50;;
4096;SDS011;2062;50.694;7.246;2022-07-23T10:36:37;13.70;;;5.15;;
4096;SDS011;2062;50.694;7.246;2022-07-23T10:39:13;11.13;;;5.35;;
4096;SDS011;2062;50.694;7.246;2022-07-23T10:41:45;11.13;;;5.30;;
4096;SDS011;2062;50.694;7.246;2022-07-23T10:44:12;10.35;;;5.03;;
4096;SDS011;2062;50.694;7.246;2022-07-23T10:46:55;9.23;;;4.73;;
4096;SDS011;2062;50.694;7.246;2022-07-23T10:49:33;10.55;;;5.13;;
4096;SDS011;2062;50.694;7.246;2022-07-23T10:54:46;12.50;;;4.95;;
4096;SDS011;2062;50.694;7.246;2022-07-23T10:57:16;9.30;;;5.32;;
4096;SDS011;2062;50.694;7.246;2022-07-23T11:02:38;9.60;;;5.00;;
4096;SDS011;2062;50.694;7.246;2022-07-23T11:05:07;9.07;;;5.20;;
4096;SDS011;2062;50.694;7.246;2022-07-23T11:07:36;8.13;;;4.78;;
4096;SDS011;2062;50.694;7.246;2022-07-23T11:10:32;9.50;;;5.57;;
4096;SDS011;2062;50.694;7.246;2022-07-23T11:16:03;8.15;;;4.88;;
4096;SDS011;2062;50.694;7.246;2022-07-23T11:21:40;10.57;;;4.97;;
4096;SDS011;2062;50.694;7.246;2022-07-23T11:24:09;11.38;;;5.80;;
4096;SDS011;2062;50.694;7.246;2022-07-23T11:26:43;8.80;;;5.20;;
4096;SDS011;2062;50.694;7.246;2022-07-23T11:32:24;9.75;;;5.32;;
4096;SDS011;2062;50.694;7.246;2022-07-23T11:34:57;9.45;;;5.03;;
4096;SDS011;2062;50.694;7.246;2022-07-23T11:37:28;11.00;;;5.60;;
4096;SDS011;2062;50.694;7.246;2022-07-23T11:39:58;10.17;;;6.03;;
4096;SDS011;2062;50.694;7.246;2022-07-23T11:42:26;8.57;;;5.15;;
4096;SDS011;2062;50.694;7.246;2022-07-23T11:44:52;9.32;;;5.68;;
4096;SDS011;2062;50.694;7.246;2022-07-23T11:47:21;10.70;;;5.45;;
4096;SDS011;2062;50.694;7.246;2022-07-23T11:49:52;10.32;;;5.63;;
4096;SDS011;2062;50.694;7.246;2022-07-23T11:52:22;10.63;;;5.70;;
4096;SDS011;2062;50.694;7.246;2022-07-23T11:54:50;9.65;;;5.40;;
4096;SDS011;2062;50.694;7.246;2022-07-23T11:57:19;11.55;;;5.50;;
4096;SDS011;2062;50.694;7.246;2022-07-23T11:59:49;9.75;;;5.22;;
4096;SDS011;2062;50.694;7.246;2022-07-23T12:02:19;9.90;;;5.30;;
4096;SDS011;2062;50.694;7.246;2022-07-23T12:04:47;7.63;;;4.90;;
4096;SDS011;2062;50.694;7.246;2022-07-23T12:07:29;8.98;;;5.30;;
4096;SDS011;2062;50.694;7.246;2022-07-23T12:09:59;9.65;;;5.55;;
4096;SDS011;2062;50.694;7.246;2022-07-23T12:12:27;10.63;;;5.97;;
4096;SDS011;2062;50.694;7.246;2022-07-23T12:15:00;10.48;;;5.57;;
4096;SDS011;2062;50.694;7.246;2022-07-23T12:17:29;10.00;;;5.67;;
4096;SDS011;2062;50.694;7.246;2022-07-23T12:19:58;7.95;;;5.10;;
4096;SDS011;2062;50.694;7.246;2022-07-23T12:22:26;11.60;;;5.40;;
4096;SDS011;2062;50.694;7.246;2022-07-23T12:25:03;8.48;;;5.18;;
4096;SDS011;2062;50.694;7.246;2022-07-23T12:27:32;8.68;;;4.97;;
4096;SDS011;2062;50.694;7.246;2022-07-23T12:29:59;8.57;;;5.50;;
4096;SDS011;2062;50.694;7.246;2022-07-23T12:32:42;7.97;;;5.18;;
4096;SDS011;2062;50.694;7.246;2022-07-23T12:35:10;8.32;;;5.25;;
4096;SDS011;2062;50.694;7.246;2022-07-23T12:37:39;7.72;;;5.03;;
4096;SDS011;2062;50.694;7.246;2022-07-23T12:40:20;9.55;;;5.75;;
4096;SDS011;2062;50.694;7.246;2022-07-23T12:42:53;7.67;;;5.27;;
4096;SDS011;2062;50.694;7.246;2022-07-23T12:45:21;8.18;;;5.13;;
4096;SDS011;2062;50.694;7.246;2022-07-23T12:47:56;7.95;;;5.53;;
4096;SDS011;2062;50.694;7.246;2022-07-23T12:50:35;9.98;;;5.15;;
4096;SDS011;2062;50.694;7.246;2022-07-23T12:53:06;8.77;;;5.40;;
4096;SDS011;2062;50.694;7.246;2022-07-23T12:55:35;10.67;;;5.60;;
4096;SDS011;2062;50.694;7.246;2022-07-23T12:58:03;8.65;;;5.63;;
4096;SDS011;2062;50.694;7.246;2022-07-23T13:00:52;7.75;;;5.70;;
4096;SDS011;2062;50.694;7.246;2022-07-23T13:03:29;10.00;;;5.55;;
4096;SDS011;2062;50.694;7.246;2022-07-23T13:05:58;12.75;;;5.80;;
4096;SDS011;2062;50.694;7.246;2022-07-23T13:08:28;8.10;;;5.77;;
4096;SDS011;2062;50.694;7.246;2022-07-23T13:10:57;9.55;;;5.70;;
4096;SDS011;2062;50.694;7.246;2022-07-23T13:13:25;9.82;;;5.78;;
4096;SDS011;2062;50.694;7.246;2022-07-23T13:15:53;11.88;;;5.78;;
4096;SDS011;2062;50.694;7.246;2022-07-23T13:18:20;9.45;;;5.95;;
4096;SDS011;2062;50.694;7.246;2022-07-23T13:20:48;9.90;;;5.90;;
4096;SDS011;2062;50.694;7.246;2022-07-23T13:23:15;11.88;;;6.55;;
4096;SDS011;2062;50.694;7.246;2022-07-23T13:25:44;10.13;;;6.22;;
4096;SDS011;2062;50.694;7.246;2022-07-23T13:28:12;9.40;;;5.85;;
4096;SDS011;2062;50.694;7.246;2022-07-23T13:30:39;10.95;;;6.47;;
4096;SDS011;2062;50.694;7.246;2022-07-23T13:33:07;8.83;;;6.20;;
4096;SDS011;2062;50.694;7.246;2022-07-23T13:35:35;13.85;;;6.55;;
4096;SDS011;2062;50.694;7.246;2022-07-23T13:38:03;10.73;;;6.00;;
4096;SDS011;2062;50.694;7.246;2022-07-23T13:40:32;10.15;;;6.55;;
4096;SDS011;2062;50.694;7.246;2022-07-23T13:43:01;10.13;;;6.65;;
4096;SDS011;2062;50.694;7.246;2022-07-23T13:45:28;10.57;;;6.63;;
4096;SDS011;2062;50.694;7.246;2022-07-23T13:47:55;10.38;;;6.45;;
4096;SDS011;2062;50.694;7.246;2022-07-23T13:50:22;10.43;;;6.50;;
4096;SDS011;2062;50.694;7.246;2022-07-23T13:52:49;10.63;;;6.80;;
4096;SDS011;2062;50.694;7.246;2022-07-23T13:55:16;10.10;;;6.20;;
4096;SDS011;2062;50.694;7.246;2022-07-23T13:57:43;8.53;;;6.40;;
4096;SDS011;2062;50.694;7.246;2022-07-23T14:00:12;10.45;;;6.00;;
4096;SDS011;2062;50.694;7.246;2022-07-23T14:02:40;9.73;;;6.40;;
4096;SDS011;2062;50.694;7.246;2022-07-23T14:05:08;9.95;;;6.28;;
4096;SDS011;2062;50.694;7.246;2022-07-23T14:07:37;9.27;;;6.43;;
4096;SDS011;2062;50.694;7.246;2022-07-23T14:10:05;10.23;;;6.60;;
4096;SDS011;2062;50.694;7.246;2022-07-23T14:12:33;10.48;;;6.55;;
4096;SDS011;2062;50.694;7.246;2022-07-23T14:15:00;10.20;;;6.68;;
4096;SDS011;2062;50.694;7.246;2022-07-23T14:17:29;11.93;;;6.30;;
4096;SDS011;2062;50.694;7.246;2022-07-23T14:19:57;11.40;;;6.57;;
4096;SDS011;2062;50.694;7.246;2022-07-23T14:22:25;11.93;;;6.60;;
4096;SDS011;2062;50.694;7.246;2022-07-23T14:24:52;11.70;;;6.75;;
4096;SDS011;2062;50.694;7.246;2022-07-23T14:27:19;11.13;;;6.43;;
4096;SDS011;2062;50.694;7.246;2022-07-23T14:29:46;10.68;;;6.95;;
4096;SDS011;2062;50.694;7.246;2022-07-23T14:32:13;10.05;;;6.80;;
4096;SDS011;2062;50.694;7.246;2022-07-23T14:34:42;9.30;;;7.07;;
4096;SDS011;2062;50.694;7.246;2022-07-23T14:37:09;9.98;;;6.63;;
4096;SDS011;2062;50.694;7.246;2022-07-23T14:39:36;10.02;;;6.40;;
4096;SDS011;2062;50.694;7.246;2022-07-23T14:42:03;9.98;;;6.70;;
4096;SDS011;2062;50.694;7.246;2022-07-23T14:44:31;11.50;;;7.05;;
4096;SDS011;2062;50.694;7.246;2022-07-23T14:46:58;10.50;;;6.20;;
4096;SDS011;2062;50.694;7.246;2022-07-23T14:49:25;11.02;;;6.97;;
4096;SDS011;2062;50.694;7.246;2022-07-23T14:51:54;9.93;;;6.63;;
4096;SDS011;2062;50.694;7.246;2022-07-23T14:54:21;10.15;;;6.55;;
4096;SDS011;2062;50.694;7.246;2022-07-23T14:56:49;10.88;;;6.72;;
4096;SDS011;2062;50.694;7.246;2022-07-23T14:59:16;10.40;;;6.67;;
4096;SDS011;2062;50.694;7.246;2022-07-23T15:01:43;9.57;;;5.95;;
4096;SDS011;2062;50.694;7.246;2022-07-23T15:04:10;10.27;;;5.82;;
4096;SDS011;2062;50.694;7.246;2022-07-23T15:06:37;10.93;;;6.03;;
4096;SDS011;2062;50.694;7.246;2022-07-23T15:09:06;9.82;;;5.63;;
4096;SDS011;2062;50.694;7.246;2022-07-23T15:11:33;8.67;;;5.87;;
4096;SDS011;2062;50.694;7.246;2022-07-23T15:14:02;9.35;;;5.65;;
4096;SDS011;2062;50.694;7.246;2022-07-23T15:16:30;8.93;;;5.70;;
4096;SDS011;2062;50.694;7.246;2022-07-23T15:18:57;9.30;;;5.85;;
4096;SDS011;2062;50.694;7.246;2022-07-23T15:21:24;9.25;;;5.90;;
4096;SDS011;2062;50.694;7.246;2022-07-23T15:23:54;9.87;;;5.40;;
4096;SDS011;2062;50.694;7.246;2022-07-23T15:26:25;9.48;;;5.70;;
4096;SDS011;2062;50.694;7.246;2022-07-23T15:28:52;9.88;;;5.80;;
4096;SDS011;2062;50.694;7.246;2022-07-23T15:31:20;9.88;;;6.03;;
4096;SDS011;2062;50.694;7.246;2022-07-23T15:33:47;11.23;;;5.85;;
4096;SDS011;2062;50.694;7.246;2022-07-23T15:36:13;12.93;;;5.90;;
4096;SDS011;2062;50.694;7.246;2022-07-23T15:38:42;9.13;;;5.75;;
4096;SDS011;2062;50.694;7.246;2022-07-23T15:41:10;10.68;;;5.30;;
4096;SDS011;2062;50.694;7.246;2022-07-23T15:43:38;9.30;;;6.00;;